sensor_id;sensor_type;location;lat;lon;timestamp;pressure;altitude;pressure_sealevel;temperature
74539;BMP180;66042;51.090;-115.340;2023-09-30T00:00:07;86339.80;;;16.10
74539;BMP180;66042;51.090;-115.340;2023-09-30T00:02:35;86340.40;;;16.00
74539;BMP180;66042;51.090;-115.340;2023-09-30T00:05:02;86351.00;;;15.80
74539;BMP180;66042;51.090;-115.340;2023-09-30T00:07:29;86367.80;;;15.60
74539;BMP180;66042;51.090;-115.340;2023-09-30T00:09:56;86364.80;;;15.46
74539;BMP180;66042;51.090;-115.340;2023-09-30T00:12:23;86370.80;;;15.30
74539;BMP180;66042;51.090;-115.340;2023-09-30T00:14:50;86372.80;;;15.10
74539;BMP180;66042;51.090;-115.340;2023-09-30T00:17:17;86393.00;;;14.90
74539;BMP180;66042;51.090;-115.340;2023-09-30T00:19:44;86393.80;;;14.60
74539;BMP180;66042;51.090;-115.340;2023-09-30T00:22:11;86389.00;;;14.40
74539;BMP180;66042;51.090;-115.340;2023-09-30T00:24:38;86391.60;;;14.20
74539;BMP180;66042;51.090;-115.340;2023-09-30T00:27:05;86400.00;;;13.90
74539;BMP180;66042;51.090;-115.340;2023-09-30T00:29:32;86407.80;;;13.80
74539;BMP180;66042;51.090;-115.340;2023-09-30T00:31:59;86413.20;;;13.70
74539;BMP180;66042;51.090;-115.340;2023-09-30T00:34:26;86416.40;;;13.60
74539;BMP180;66042;51.090;-115.340;2023-09-30T00:36:53;86417.00;;;13.42
74539;BMP180;66042;51.090;-115.340;2023-09-30T00:39:20;86425.20;;;13.30
74539;BMP180;66042;51.090;-115.340;2023-09-30T00:41:46;86425.40;;;13.20
74539;BMP180;66042;51.090;-115.340;2023-09-30T00:44:14;86430.00;;;13.10
74539;BMP180;66042;51.090;-115.340;2023-09-30T00:46:40;86436.20;;;13.00
74539;BMP180;66042;51.090;-115.340;2023-09-30T00:49:09;86441.00;;;12.96
74539;BMP180;66042;51.090;-115.340;2023-09-30T00:51:37;86444.00;;;12.90
74539;BMP180;66042;51.090;-115.340;2023-09-30T00:54:04;86450.80;;;12.80
74539;BMP180;66042;51.090;-115.340;2023-09-30T00:56:33;86454.00;;;12.60
74539;BMP180;66042;51.090;-115.340;2023-09-30T00:59:01;86460.80;;;12.40
74539;BMP180;66042;51.090;-115.340;2023-09-30T01:01:27;86464.40;;;12.22
74539;BMP180;66042;51.090;-115.340;2023-09-30T01:03:54;86467.00;;;12.08
74539;BMP180;66042;51.090;-115.340;2023-09-30T01:06:21;86471.20;;;11.90
74539;BMP180;66042;51.090;-115.340;2023-09-30T01:08:48;86478.20;;;11.70
74539;BMP180;66042;51.090;-115.340;2023-09-30T01:11:15;86482.40;;;11.42
74539;BMP180;66042;51.090;-115.340;2023-09-30T01:13:42;86492.20;;;11.10
74539;BMP180;66042;51.090;-115.340;2023-09-30T01:16:11;86495.60;;;10.90
74539;BMP180;66042;51.090;-115.340;2023-09-30T01:18:40;86502.00;;;10.80
74539;BMP180;66042;51.090;-115.340;2023-09-30T01:21:09;86505.00;;;10.70
74539;BMP180;66042;51.090;-115.340;2023-09-30T01:23:37;86508.20;;;10.50
74539;BMP180;66042;51.090;-115.340;2023-09-30T01:26:11;86513.60;;;10.30
74539;BMP180;66042;51.090;-115.340;2023-09-30T01:28:42;86518.20;;;10.30
74539;BMP180;66042;51.090;-115.340;2023-09-30T01:31:08;86522.40;;;10.20
74539;BMP180;66042;51.090;-115.340;2023-09-30T01:33:35;86524.00;;;10.20
74539;BMP180;66042;51.090;-115.340;2023-09-30T01:36:02;86528.40;;;10.10
74539;BMP180;66042;51.090;-115.340;2023-09-30T01:38:29;86536.60;;;10.08
74539;BMP180;66042;51.090;-115.340;2023-09-30T01:40:56;86546.80;;;9.90
74539;BMP180;66042;51.090;-115.340;2023-09-30T01:43:23;86555.00;;;9.90
74539;BMP180;66042;51.090;-115.340;2023-09-30T01:45:50;86562.40;;;9.90
74539;BMP180;66042;51.090;-115.340;2023-09-30T01:48:17;86566.20;;;9.80
74539;BMP180;66042;51.090;-115.340;2023-09-30T01:50:44;86564.80;;;9.80
74539;BMP180;66042;51.090;-115.340;2023-09-30T01:53:11;86570.40;;;9.70
74539;BMP180;66042;51.090;-115.340;2023-09-30T01:55:39;86569.80;;;9.60
74539;BMP180;66042;51.090;-115.340;2023-09-30T01:58:06;86572.80;;;9.70
74539;BMP180;66042;51.090;-115.340;2023-09-30T02:00:34;86582.20;;;9.70
74539;BMP180;66042;51.090;-115.340;2023-09-30T02:03:01;86583.60;;;9.60
74539;BMP180;66042;51.090;-115.340;2023-09-30T02:05:29;86590.80;;;9.60
74539;BMP180;66042;51.090;-115.340;2023-09-30T02:07:56;86592.20;;;9.50
74539;BMP180;66042;51.090;-115.340;2023-09-30T02:10:22;86599.00;;;9.50
74539;BMP180;66042;51.090;-115.340;2023-09-30T02:12:49;86602.60;;;9.50
74539;BMP180;66042;51.090;-115.340;2023-09-30T02:15:17;86607.80;;;9.50
74539;BMP180;66042;51.090;-115.340;2023-09-30T02:17:44;86610.40;;;9.50
74539;BMP180;66042;51.090;-115.340;2023-09-30T02:20:12;86605.80;;;9.40
74539;BMP180;66042;51.090;-115.340;2023-09-30T02:22:42;86605.20;;;9.40
74539;BMP180;66042;51.090;-115.340;2023-09-30T02:25:13;86602.60;;;9.30
74539;BMP180;66042;51.090;-115.340;2023-09-30T02:27:41;86600.20;;;9.20
74539;BMP180;66042;51.090;-115.340;2023-09-30T02:30:12;86605.40;;;9.20
74539;BMP180;66042;51.090;-115.340;2023-09-30T02:32:40;86607.60;;;9.10
74539;BMP180;66042;51.090;-115.340;2023-09-30T02:35:09;86607.60;;;9.10
74539;BMP180;66042;51.090;-115.340;2023-09-30T02:37:40;86606.80;;;9.10
74539;BMP180;66042;51.090;-115.340;2023-09-30T02:40:07;86609.60;;;9.00
74539;BMP180;66042;51.090;-115.340;2023-09-30T02:42:39;86611.60;;;9.00
74539;BMP180;66042;51.090;-115.340;2023-09-30T02:45:07;86615.40;;;9.00
74539;BMP180;66042;51.090;-115.340;2023-09-30T02:47:35;86615.60;;;9.00
74539;BMP180;66042;51.090;-115.340;2023-09-30T02:50:05;86619.60;;;9.00
74539;BMP180;66042;51.090;-115.340;2023-09-30T02:52:35;86619.00;;;9.00
74539;BMP180;66042;51.090;-115.340;2023-09-30T02:55:03;86621.20;;;9.00
74539;BMP180;66042;51.090;-115.340;2023-09-30T02:57:30;86619.00;;;9.00
74539;BMP180;66042;51.090;-115.340;2023-09-30T02:59:58;86620.00;;;9.00
74539;BMP180;66042;51.090;-115.340;2023-09-30T03:02:27;86622.20;;;9.00
74539;BMP180;66042;51.090;-115.340;2023-09-30T03:04:56;86621.00;;;8.82
74539;BMP180;66042;51.090;-115.340;2023-09-30T03:07:24;86626.20;;;8.80
74539;BMP180;66042;51.090;-115.340;2023-09-30T03:09:51;86627.20;;;8.80
74539;BMP180;66042;51.090;-115.340;2023-09-30T03:12:20;86630.20;;;8.70
74539;BMP180;66042;51.090;-115.340;2023-09-30T03:14:47;86633.40;;;8.70
74539;BMP180;66042;51.090;-115.340;2023-09-30T03:17:14;86634.00;;;8.70
74539;BMP180;66042;51.090;-115.340;2023-09-30T03:19:41;86639.40;;;8.70
74539;BMP180;66042;51.090;-115.340;2023-09-30T03:22:08;86640.20;;;8.70
74539;BMP180;66042;51.090;-115.340;2023-09-30T03:24:40;86633.00;;;8.70
74539;BMP180;66042;51.090;-115.340;2023-09-30T03:27:08;86636.80;;;8.70
74539;BMP180;66042;51.090;-115.340;2023-09-30T03:29:36;86644.60;;;8.68
74539;BMP180;66042;51.090;-115.340;2023-09-30T03:32:04;86646.40;;;8.60
74539;BMP180;66042;51.090;-115.340;2023-09-30T03:34:31;86644.20;;;8.60
74539;BMP180;66042;51.090;-115.340;2023-09-30T03:36:59;86652.60;;;8.50
74539;BMP180;66042;51.090;-115.340;2023-09-30T03:39:26;86655.20;;;8.40
74539;BMP180;66042;51.090;-115.340;2023-09-30T03:41:55;86654.40;;;8.40
74539;BMP180;66042;51.090;-115.340;2023-09-30T03:44:26;86659.20;;;8.30
74539;BMP180;66042;51.090;-115.340;2023-09-30T03:46:52;86666.40;;;8.20
74539;BMP180;66042;51.090;-115.340;2023-09-30T03:49:20;86664.40;;;8.20
74539;BMP180;66042;51.090;-115.340;2023-09-30T03:51:47;86662.60;;;8.10
74539;BMP180;66042;51.090;-115.340;2023-09-30T03:54:17;86665.20;;;8.00
74539;BMP180;66042;51.090;-115.340;2023-09-30T03:56:47;86661.40;;;8.00
74539;BMP180;66042;51.090;-115.340;2023-09-30T03:59:14;86667.00;;;8.02
74539;BMP180;66042;51.090;-115.340;2023-09-30T04:01:42;86662.00;;;8.00
74539;BMP180;66042;51.090;-115.340;2023-09-30T04:04:09;86665.20;;;8.00
74539;BMP180;66042;51.090;-115.340;2023-09-30T04:06:37;86663.60;;;8.00
74539;BMP180;66042;51.090;-115.340;2023-09-30T04:09:07;86669.00;;;8.00
74539;BMP180;66042;51.090;-115.340;2023-09-30T04:11:37;86670.00;;;7.96
74539;BMP180;66042;51.090;-115.340;2023-09-30T04:14:08;86670.20;;;7.90
74539;BMP180;66042;51.090;-115.340;2023-09-30T04:16:35;86673.40;;;7.90
74539;BMP180;66042;51.090;-115.340;2023-09-30T04:19:04;86676.80;;;7.90
74539;BMP180;66042;51.090;-115.340;2023-09-30T04:21:31;86675.80;;;7.90
74539;BMP180;66042;51.090;-115.340;2023-09-30T04:24:01;86675.60;;;7.80
74539;BMP180;66042;51.090;-115.340;2023-09-30T04:26:28;86677.00;;;7.80
74539;BMP180;66042;51.090;-115.340;2023-09-30T04:28:56;86675.00;;;7.70
74539;BMP180;66042;51.090;-115.340;2023-09-30T04:31:24;86676.20;;;7.70
74539;BMP180;66042;51.090;-115.340;2023-09-30T04:33:51;86678.40;;;7.70
74539;BMP180;66042;51.090;-115.340;2023-09-30T04:36:18;86674.20;;;7.62
74539;BMP180;66042;51.090;-115.340;2023-09-30T04:38:45;86680.40;;;7.60
74539;BMP180;66042;51.090;-115.340;2023-09-30T04:41:12;86679.60;;;7.60
74539;BMP180;66042;51.090;-115.340;2023-09-30T04:43:40;86676.40;;;7.60
74539;BMP180;66042;51.090;-115.340;2023-09-30T04:46:07;86679.80;;;7.60
74539;BMP180;66042;51.090;-115.340;2023-09-30T04:48:34;86680.40;;;7.68
74539;BMP180;66042;51.090;-115.340;2023-09-30T04:51:05;86680.00;;;7.70
74539;BMP180;66042;51.090;-115.340;2023-09-30T04:53:33;86686.40;;;7.70
74539;BMP180;66042;51.090;-115.340;2023-09-30T04:56:00;86685.40;;;7.64
74539;BMP180;66042;51.090;-115.340;2023-09-30T04:58:28;86685.20;;;7.62
74539;BMP180;66042;51.090;-115.340;2023-09-30T05:00:56;86684.40;;;7.68
74539;BMP180;66042;51.090;-115.340;2023-09-30T05:03:23;86685.80;;;7.70
74539;BMP180;66042;51.090;-115.340;2023-09-30T05:05:52;86686.80;;;7.60
74539;BMP180;66042;51.090;-115.340;2023-09-30T05:08:23;86686.60;;;7.60
74539;BMP180;66042;51.090;-115.340;2023-09-30T05:10:51;86691.60;;;7.60
74539;BMP180;66042;51.090;-115.340;2023-09-30T05:13:22;86697.40;;;7.60
74539;BMP180;66042;51.090;-115.340;2023-09-30T05:15:53;86698.40;;;7.60
74539;BMP180;66042;51.090;-115.340;2023-09-30T05:18:20;86695.40;;;7.54
74539;BMP180;66042;51.090;-115.340;2023-09-30T05:20:47;86697.20;;;7.50
74539;BMP180;66042;51.090;-115.340;2023-09-30T05:23:15;86698.40;;;7.50
74539;BMP180;66042;51.090;-115.340;2023-09-30T05:25:44;86699.60;;;7.50
74539;BMP180;66042;51.090;-115.340;2023-09-30T05:28:11;86698.00;;;7.50
74539;BMP180;66042;51.090;-115.340;2023-09-30T05:30:40;86699.00;;;7.40
74539;BMP180;66042;51.090;-115.340;2023-09-30T05:33:07;86697.80;;;7.40
74539;BMP180;66042;51.090;-115.340;2023-09-30T05:35:34;86701.60;;;7.42
74539;BMP180;66042;51.090;-115.340;2023-09-30T05:38:01;86699.40;;;7.50
74539;BMP180;66042;51.090;-115.340;2023-09-30T05:40:30;86699.80;;;7.50
74539;BMP180;66042;51.090;-115.340;2023-09-30T05:42:58;86702.60;;;7.54
74539;BMP180;66042;51.090;-115.340;2023-09-30T05:45:27;86700.40;;;7.60
74539;BMP180;66042;51.090;-115.340;2023-09-30T05:47:55;86703.60;;;7.60
74539;BMP180;66042;51.090;-115.340;2023-09-30T05:50:24;86702.00;;;7.60
74539;BMP180;66042;51.090;-115.340;2023-09-30T05:52:55;86709.00;;;7.50
74539;BMP180;66042;51.090;-115.340;2023-09-30T05:55:23;86707.20;;;7.50
74539;BMP180;66042;51.090;-115.340;2023-09-30T05:57:52;86703.40;;;7.50
74539;BMP180;66042;51.090;-115.340;2023-09-30T06:00:19;86710.00;;;7.50
74539;BMP180;66042;51.090;-115.340;2023-09-30T06:02:50;86710.80;;;7.50
74539;BMP180;66042;51.090;-115.340;2023-09-30T06:05:18;86712.20;;;7.40
74539;BMP180;66042;51.090;-115.340;2023-09-30T06:07:46;86714.20;;;7.40
74539;BMP180;66042;51.090;-115.340;2023-09-30T06:10:14;86715.60;;;7.40
74539;BMP180;66042;51.090;-115.340;2023-09-30T06:12:50;86717.20;;;7.34
74539;BMP180;66042;51.090;-115.340;2023-09-30T06:15:25;86715.40;;;7.30
74539;BMP180;66042;51.090;-115.340;2023-09-30T06:17:56;86716.00;;;7.24
74539;BMP180;66042;51.090;-115.340;2023-09-30T06:20:24;86721.60;;;7.20
74539;BMP180;66042;51.090;-115.340;2023-09-30T06:22:52;86726.20;;;7.10
74539;BMP180;66042;51.090;-115.340;2023-09-30T06:25:22;86723.20;;;7.00
74539;BMP180;66042;51.090;-115.340;2023-09-30T06:27:54;86728.60;;;7.00
74539;BMP180;66042;51.090;-115.340;2023-09-30T06:30:21;86727.20;;;7.00
74539;BMP180;66042;51.090;-115.340;2023-09-30T06:32:51;86732.20;;;7.00
74539;BMP180;66042;51.090;-115.340;2023-09-30T06:35:18;86730.40;;;7.00
74539;BMP180;66042;51.090;-115.340;2023-09-30T06:37:44;86732.00;;;6.90
74539;BMP180;66042;51.090;-115.340;2023-09-30T06:40:12;86733.60;;;6.90
74539;BMP180;66042;51.090;-115.340;2023-09-30T06:42:39;86733.20;;;6.80
74539;BMP180;66042;51.090;-115.340;2023-09-30T06:45:09;86736.00;;;6.80
74539;BMP180;66042;51.090;-115.340;2023-09-30T06:47:38;86734.40;;;6.80
74539;BMP180;66042;51.090;-115.340;2023-09-30T06:50:12;86737.00;;;6.80
74539;BMP180;66042;51.090;-115.340;2023-09-30T06:52:44;86736.40;;;6.80
74539;BMP180;66042;51.090;-115.340;2023-09-30T06:55:15;86738.00;;;6.78
74539;BMP180;66042;51.090;-115.340;2023-09-30T06:57:45;86736.20;;;6.70
74539;BMP180;66042;51.090;-115.340;2023-09-30T07:00:14;86735.00;;;6.70
74539;BMP180;66042;51.090;-115.340;2023-09-30T07:02:42;86737.60;;;6.60
74539;BMP180;66042;51.090;-115.340;2023-09-30T07:05:10;86740.80;;;6.60
74539;BMP180;66042;51.090;-115.340;2023-09-30T07:07:38;86741.60;;;6.58
74539;BMP180;66042;51.090;-115.340;2023-09-30T07:10:06;86742.60;;;6.50
74539;BMP180;66042;51.090;-115.340;2023-09-30T07:12:34;86743.20;;;6.50
74539;BMP180;66042;51.090;-115.340;2023-09-30T07:15:02;86747.60;;;6.50
74539;BMP180;66042;51.090;-115.340;2023-09-30T07:17:31;86746.40;;;6.50
74539;BMP180;66042;51.090;-115.340;2023-09-30T07:19:58;86741.80;;;6.50
74539;BMP180;66042;51.090;-115.340;2023-09-30T07:22:26;86745.60;;;6.60
74539;BMP180;66042;51.090;-115.340;2023-09-30T07:24:53;86742.60;;;6.60
74539;BMP180;66042;51.090;-115.340;2023-09-30T07:27:19;86746.80;;;6.70
74539;BMP180;66042;51.090;-115.340;2023-09-30T07:29:46;86745.80;;;6.70
74539;BMP180;66042;51.090;-115.340;2023-09-30T07:32:14;86746.60;;;6.66
74539;BMP180;66042;51.090;-115.340;2023-09-30T07:34:41;86748.40;;;6.70
74539;BMP180;66042;51.090;-115.340;2023-09-30T07:37:08;86746.20;;;6.70
74539;BMP180;66042;51.090;-115.340;2023-09-30T07:39:39;86749.00;;;6.70
74539;BMP180;66042;51.090;-115.340;2023-09-30T07:42:08;86747.80;;;6.74
74539;BMP180;66042;51.090;-115.340;2023-09-30T07:44:36;86750.00;;;6.80
74539;BMP180;66042;51.090;-115.340;2023-09-30T07:47:06;86755.00;;;6.70
74539;BMP180;66042;51.090;-115.340;2023-09-30T07:49:35;86754.60;;;6.70
74539;BMP180;66042;51.090;-115.340;2023-09-30T07:52:04;86752.80;;;6.70
74539;BMP180;66042;51.090;-115.340;2023-09-30T07:54:30;86757.00;;;6.70
74539;BMP180;66042;51.090;-115.340;2023-09-30T07:57:00;86757.60;;;6.70
74539;BMP180;66042;51.090;-115.340;2023-09-30T07:59:28;86757.20;;;6.70
74539;BMP180;66042;51.090;-115.340;2023-09-30T08:01:54;86761.80;;;6.70
74539;BMP180;66042;51.090;-115.340;2023-09-30T08:04:23;86763.80;;;6.70
74539;BMP180;66042;51.090;-115.340;2023-09-30T08:06:51;86761.20;;;6.68
74539;BMP180;66042;51.090;-115.340;2023-09-30T08:09:19;86761.20;;;6.70
74539;BMP180;66042;51.090;-115.340;2023-09-30T08:11:46;86761.20;;;6.70
74539;BMP180;66042;51.090;-115.340;2023-09-30T08:14:13;86761.60;;;6.70
74539;BMP180;66042;51.090;-115.340;2023-09-30T08:16:41;86763.20;;;6.78
74539;BMP180;66042;51.090;-115.340;2023-09-30T08:19:09;86764.00;;;6.80
74539;BMP180;66042;51.090;-115.340;2023-09-30T08:21:36;86770.00;;;6.72
74539;BMP180;66042;51.090;-115.340;2023-09-30T08:24:03;86770.60;;;6.80
74539;BMP180;66042;51.090;-115.340;2023-09-30T08:26:30;86778.40;;;6.80
74539;BMP180;66042;51.090;-115.340;2023-09-30T08:28:56;86778.40;;;6.80
74539;BMP180;66042;51.090;-115.340;2023-09-30T08:31:23;86779.60;;;6.80
74539;BMP180;66042;51.090;-115.340;2023-09-30T08:33:51;86780.80;;;6.80
74539;BMP180;66042;51.090;-115.340;2023-09-30T08:36:18;86778.80;;;6.70
74539;BMP180;66042;51.090;-115.340;2023-09-30T08:38:45;86782.20;;;6.62
74539;BMP180;66042;51.090;-115.340;2023-09-30T08:41:36;86784.20;;;6.60
74539;BMP180;66042;51.090;-115.340;2023-09-30T08:44:04;86781.80;;;6.60
74539;BMP180;66042;51.090;-115.340;2023-09-30T08:46:34;86781.00;;;6.60
74539;BMP180;66042;51.090;-115.340;2023-09-30T08:49:04;86781.20;;;6.60
74539;BMP180;66042;51.090;-115.340;2023-09-30T08:51:32;86779.00;;;6.50
74539;BMP180;66042;51.090;-115.340;2023-09-30T08:54:00;86779.80;;;6.56
74539;BMP180;66042;51.090;-115.340;2023-09-30T08:56:31;86779.60;;;6.50
74539;BMP180;66042;51.090;-115.340;2023-09-30T08:59:03;86779.20;;;6.60
74539;BMP180;66042;51.090;-115.340;2023-09-30T09:01:31;86782.80;;;6.58
74539;BMP180;66042;51.090;-115.340;2023-09-30T09:03:58;86787.40;;;6.56
74539;BMP180;66042;51.090;-115.340;2023-09-30T09:06:26;86783.80;;;6.54
74539;BMP180;66042;51.090;-115.340;2023-09-30T09:08:53;86781.60;;;6.50
74539;BMP180;66042;51.090;-115.340;2023-09-30T09:11:20;86779.60;;;6.50
74539;BMP180;66042;51.090;-115.340;2023-09-30T09:13:54;86778.80;;;6.50
74539;BMP180;66042;51.090;-115.340;2023-09-30T09:16:26;86780.40;;;6.50
74539;BMP180;66042;51.090;-115.340;2023-09-30T09:18:53;86777.00;;;6.50
74539;BMP180;66042;51.090;-115.340;2023-09-30T09:21:23;86778.40;;;6.50
74539;BMP180;66042;51.090;-115.340;2023-09-30T09:23:53;86778.40;;;6.40
74539;BMP180;66042;51.090;-115.340;2023-09-30T09:26:31;86778.80;;;6.40
74539;BMP180;66042;51.090;-115.340;2023-09-30T09:29:04;86778.00;;;6.32
74539;BMP180;66042;51.090;-115.340;2023-09-30T09:31:35;86779.00;;;6.30
74539;BMP180;66042;51.090;-115.340;2023-09-30T09:34:13;86777.20;;;6.26
74539;BMP180;66042;51.090;-115.340;2023-09-30T09:36:43;86779.80;;;6.20
74539;BMP180;66042;51.090;-115.340;2023-09-30T09:39:11;86778.20;;;6.10
74539;BMP180;66042;51.090;-115.340;2023-09-30T09:41:53;86781.80;;;6.10
74539;BMP180;66042;51.090;-115.340;2023-09-30T09:44:24;86781.60;;;6.02
74539;BMP180;66042;51.090;-115.340;2023-09-30T09:46:54;86784.20;;;6.00
74539;BMP180;66042;51.090;-115.340;2023-09-30T09:49:22;86788.80;;;6.00
74539;BMP180;66042;51.090;-115.340;2023-09-30T09:51:52;86792.60;;;6.00
74539;BMP180;66042;51.090;-115.340;2023-09-30T09:54:21;86796.60;;;6.00
74539;BMP180;66042;51.090;-115.340;2023-09-30T09:56:53;86797.60;;;5.90
74539;BMP180;66042;51.090;-115.340;2023-09-30T09:59:25;86800.20;;;5.92
74539;BMP180;66042;51.090;-115.340;2023-09-30T10:01:53;86801.40;;;5.90
74539;BMP180;66042;51.090;-115.340;2023-09-30T10:04:21;86799.00;;;5.90
74539;BMP180;66042;51.090;-115.340;2023-09-30T10:06:52;86800.60;;;5.90
74539;BMP180;66042;51.090;-115.340;2023-09-30T10:09:20;86793.60;;;5.80
74539;BMP180;66042;51.090;-115.340;2023-09-30T10:11:49;86791.60;;;5.80
74539;BMP180;66042;51.090;-115.340;2023-09-30T10:14:32;86790.00;;;5.80
74539;BMP180;66042;51.090;-115.340;2023-09-30T10:16:59;86788.60;;;5.80
74539;BMP180;66042;51.090;-115.340;2023-09-30T10:19:28;86793.40;;;5.78
74539;BMP180;66042;51.090;-115.340;2023-09-30T10:24:56;86789.40;;;5.70
74539;BMP180;66042;51.090;-115.340;2023-09-30T10:30:14;86790.80;;;5.70
74539;BMP180;66042;51.090;-115.340;2023-09-30T10:35:18;86793.80;;;5.60
74539;BMP180;66042;51.090;-115.340;2023-09-30T10:37:46;86796.80;;;5.70
74539;BMP180;66042;51.090;-115.340;2023-09-30T10:40:30;86795.00;;;5.70
74539;BMP180;66042;51.090;-115.340;2023-09-30T10:43:00;86792.60;;;5.72
74539;BMP180;66042;51.090;-115.340;2023-09-30T10:51:18;86796.60;;;5.80
74539;BMP180;66042;51.090;-115.340;2023-09-30T10:53:54;86798.40;;;5.80
74539;BMP180;66042;51.090;-115.340;2023-09-30T10:56:33;86801.00;;;5.80
74539;BMP180;66042;51.090;-115.340;2023-09-30T10:59:00;86802.40;;;5.80
74539;BMP180;66042;51.090;-115.340;2023-09-30T11:01:35;86802.40;;;5.80
74539;BMP180;66042;51.090;-115.340;2023-09-30T11:04:04;86805.40;;;5.70
74539;BMP180;66042;51.090;-115.340;2023-09-30T11:06:32;86808.00;;;5.72
74539;BMP180;66042;51.090;-115.340;2023-09-30T11:09:01;86812.60;;;5.70
74539;BMP180;66042;51.090;-115.340;2023-09-30T11:11:42;86816.20;;;5.64
74539;BMP180;66042;51.090;-115.340;2023-09-30T11:14:23;86818.80;;;5.60
74539;BMP180;66042;51.090;-115.340;2023-09-30T11:16:53;86810.80;;;5.60
74539;BMP180;66042;51.090;-115.340;2023-09-30T11:19:21;86811.60;;;5.60
74539;BMP180;66042;51.090;-115.340;2023-09-30T11:21:55;86810.60;;;5.60
74539;BMP180;66042;51.090;-115.340;2023-09-30T11:24:22;86809.00;;;5.60
74539;BMP180;66042;51.090;-115.340;2023-09-30T11:26:53;86812.00;;;5.60
74539;BMP180;66042;51.090;-115.340;2023-09-30T11:29:22;86813.20;;;5.60
74539;BMP180;66042;51.090;-115.340;2023-09-30T11:31:50;86816.40;;;5.66
74539;BMP180;66042;51.090;-115.340;2023-09-30T11:34:20;86819.20;;;5.70
74539;BMP180;66042;51.090;-115.340;2023-09-30T11:37:00;86820.20;;;5.68
74539;BMP180;66042;51.090;-115.340;2023-09-30T11:39:29;86821.00;;;5.70
74539;BMP180;66042;51.090;-115.340;2023-09-30T11:41:57;86828.00;;;5.68
74539;BMP180;66042;51.090;-115.340;2023-09-30T11:44:25;86826.60;;;5.70
74539;BMP180;66042;51.090;-115.340;2023-09-30T11:47:02;86823.00;;;5.60
74539;BMP180;66042;51.090;-115.340;2023-09-30T11:49:37;86824.60;;;5.60
74539;BMP180;66042;51.090;-115.340;2023-09-30T11:52:09;86824.20;;;5.60
74539;BMP180;66042;51.090;-115.340;2023-09-30T11:54:39;86828.60;;;5.60
74539;BMP180;66042;51.090;-115.340;2023-09-30T11:57:14;86830.20;;;5.60
74539;BMP180;66042;51.090;-115.340;2023-09-30T11:59:43;86833.80;;;5.60
74539;BMP180;66042;51.090;-115.340;2023-09-30T12:02:15;86838.40;;;5.52
74539;BMP180;66042;51.090;-115.340;2023-09-30T12:04:46;86832.20;;;5.50
74539;BMP180;66042;51.090;-115.340;2023-09-30T12:07:16;86836.60;;;5.54
74539;BMP180;66042;51.090;-115.340;2023-09-30T12:09:42;86836.60;;;5.60
74539;BMP180;66042;51.090;-115.340;2023-09-30T12:12:09;86832.00;;;5.60
74539;BMP180;66042;51.090;-115.340;2023-09-30T12:14:37;86834.00;;;5.60
74539;BMP180;66042;51.090;-115.340;2023-09-30T12:17:04;86831.20;;;5.60
74539;BMP180;66042;51.090;-115.340;2023-09-30T12:19:31;86832.40;;;5.60
74539;BMP180;66042;51.090;-115.340;2023-09-30T12:21:58;86834.00;;;5.70
74539;BMP180;66042;51.090;-115.340;2023-09-30T12:24:25;86831.20;;;5.70
74539;BMP180;66042;51.090;-115.340;2023-09-30T12:26:52;86834.40;;;5.64
74539;BMP180;66042;51.090;-115.340;2023-09-30T12:29:21;86828.20;;;5.60
74539;BMP180;66042;51.090;-115.340;2023-09-30T12:31:51;86827.20;;;5.60
74539;BMP180;66042;51.090;-115.340;2023-09-30T12:34:19;86829.40;;;5.60
74539;BMP180;66042;51.090;-115.340;2023-09-30T12:36:46;86828.00;;;5.50
74539;BMP180;66042;51.090;-115.340;2023-09-30T12:39:14;86830.80;;;5.50
74539;BMP180;66042;51.090;-115.340;2023-09-30T12:41:44;86829.20;;;5.48
74539;BMP180;66042;51.090;-115.340;2023-09-30T12:44:11;86836.60;;;5.40
74539;BMP180;66042;51.090;-115.340;2023-09-30T12:46:38;86837.40;;;5.48
74539;BMP180;66042;51.090;-115.340;2023-09-30T12:49:08;86833.60;;;5.50
74539;BMP180;66042;51.090;-115.340;2023-09-30T12:51:36;86829.20;;;5.50
74539;BMP180;66042;51.090;-115.340;2023-09-30T12:54:03;86832.00;;;5.50
74539;BMP180;66042;51.090;-115.340;2023-09-30T12:56:31;86830.60;;;5.60
74539;BMP180;66042;51.090;-115.340;2023-09-30T12:58:59;86834.00;;;5.60
74539;BMP180;66042;51.090;-115.340;2023-09-30T13:01:26;86829.60;;;5.60
74539;BMP180;66042;51.090;-115.340;2023-09-30T13:03:54;86825.80;;;5.60
74539;BMP180;66042;51.090;-115.340;2023-09-30T13:06:21;86824.00;;;5.60
74539;BMP180;66042;51.090;-115.340;2023-09-30T13:08:48;86826.80;;;5.60
74539;BMP180;66042;51.090;-115.340;2023-09-30T13:11:15;86828.40;;;5.64
74539;BMP180;66042;51.090;-115.340;2023-09-30T13:13:42;86831.60;;;5.70
74539;BMP180;66042;51.090;-115.340;2023-09-30T13:16:11;86831.40;;;5.60
74539;BMP180;66042;51.090;-115.340;2023-09-30T13:18:38;86833.60;;;5.70
74539;BMP180;66042;51.090;-115.340;2023-09-30T13:21:06;86836.20;;;5.64
74539;BMP180;66042;51.090;-115.340;2023-09-30T13:23:34;86835.80;;;5.62
74539;BMP180;66042;51.090;-115.340;2023-09-30T13:26:01;86842.00;;;5.60
74539;BMP180;66042;51.090;-115.340;2023-09-30T13:28:29;86841.80;;;5.50
74539;BMP180;66042;51.090;-115.340;2023-09-30T13:30:56;86842.20;;;5.50
74539;BMP180;66042;51.090;-115.340;2023-09-30T13:33:24;86843.40;;;5.50
74539;BMP180;66042;51.090;-115.340;2023-09-30T13:35:51;86846.20;;;5.50
74539;BMP180;66042;51.090;-115.340;2023-09-30T13:38:18;86848.20;;;5.50
74539;BMP180;66042;51.090;-115.340;2023-09-30T13:40:45;86851.40;;;5.50
74539;BMP180;66042;51.090;-115.340;2023-09-30T13:43:13;86852.00;;;5.50
74539;BMP180;66042;51.090;-115.340;2023-09-30T13:45:40;86850.00;;;5.50
74539;BMP180;66042;51.090;-115.340;2023-09-30T13:48:07;86855.00;;;5.50
74539;BMP180;66042;51.090;-115.340;2023-09-30T13:50:35;86863.40;;;5.54
74539;BMP180;66042;51.090;-115.340;2023-09-30T13:53:02;86868.40;;;5.60
74539;BMP180;66042;51.090;-115.340;2023-09-30T13:55:29;86865.80;;;5.60
74539;BMP180;66042;51.090;-115.340;2023-09-30T13:57:56;86867.40;;;5.60
74539;BMP180;66042;51.090;-115.340;2023-09-30T14:00:24;86865.20;;;5.50
74539;BMP180;66042;51.090;-115.340;2023-09-30T14:02:50;86869.40;;;5.50
74539;BMP180;66042;51.090;-115.340;2023-09-30T14:05:17;86867.00;;;5.50